Time;durP1;ratioP1;P1;durP2;ratioP2;P2;SDS_P1;SDS_P2;PMS_P1;PMS_P2;Temp;Humidity;BMP_temperature;BMP_pressure;BME280_temperature;BME280_humidity;BME280_pressure;Samples;Min_cycle;Max_cycle;Signal;HPM_P1;HPM_P2
2022/06/17 00:01:05;;;;;;;121.67;117.37;;;12.20;99.90;;;;;;5061604;28;20842;-83
2022/06/17 00:03:34;;;;;;;114.87;110.70;;;12.20;99.90;;;;;;5061717;28;20840;-82
2022/06/17 00:06:04;;;;;;;181.33;175.07;;;12.20;99.90;;;;;;5061117;28;20720;-82
2022/06/17 00:08:34;;;;;;;223.17;215.90;;;12.20;99.90;;;;;;5058429;28;20451;-84
2022/06/17 00:11:01;;;;;;;182.50;176.30;;;12.20;99.90;;;;;;5058305;28;20463;-84
2022/06/17 00:13:28;;;;;;;115.23;110.83;;;12.10;99.90;;;;;;5058820;28;20838;-82
2022/06/17 00:15:55;;;;;;;85.97;82.57;;;12.10;99.90;;;;;;5058080;28;20451;-81
2022/06/17 00:18:22;;;;;;;158.57;153.10;;;12.00;99.90;;;;;;5056399;28;20458;-82
2022/06/17 00:20:50;;;;;;;140.83;135.93;;;12.10;99.90;;;;;;5056964;28;20482;-82
2022/06/17 00:23:21;;;;;;;124.87;120.37;;;12.10;99.90;;;;;;5056825;28;20856;-82
2022/06/17 00:25:49;;;;;;;74.80;71.77;;;12.00;99.90;;;;;;5056938;28;20458;-80
2022/06/17 00:28:19;;;;;;;70.83;68.03;;;12.00;99.90;;;;;;5057083;28;20869;-82
2022/06/17 00:30:46;;;;;;;127.60;123.13;;;11.90;99.90;;;;;;5057114;28;20480;-82
2022/06/17 00:33:14;;;;;;;118.50;114.20;;;11.80;99.90;;;;;;5057115;28;20486;-82
2022/06/17 00:35:44;;;;;;;98.77;95.13;;;11.80;99.90;;;;;;5057458;28;20458;-82
2022/06/17 00:38:14;;;;;;;101.77;98.00;;;11.80;99.90;;;;;;5056274;28;20467;-81
2022/06/17 00:40:43;;;;;;;132.33;127.30;;;11.80;99.90;;;;;;5056709;28;20467;-81
2022/06/17 00:43:20;;;;;;;155.57;150.27;;;11.80;99.90;;;;;;5056410;28;20475;-82
2022/06/17 00:45:53;;;;;;;157.50;152.10;;;11.60;99.90;;;;;;5056915;28;20455;-82
2022/06/17 00:48:24;;;;;;;220.13;212.73;;;11.70;99.90;;;;;;5056169;28;20447;-81
2022/06/17 00:50:57;;;;;;;274.47;265.07;;;11.70;99.90;;;;;;5056459;28;20856;-83
2022/06/17 00:53:28;;;;;;;270.77;261.87;;;11.70;99.90;;;;;;5055512;28;20475;-82
2022/06/17 00:56:00;;;;;;;287.13;277.00;;;11.80;99.90;;;;;;5057166;28;20452;-82
2022/06/17 00:58:30;;;;;;;260.27;251.37;;;11.70;99.90;;;;;;5055674;28;20481;-82
2022/06/17 01:01:00;;;;;;;221.80;214.60;;;11.70;99.90;;;;;;5057263;28;20447;-81
2022/06/17 01:03:30;;;;;;;260.83;251.97;;;11.60;99.90;;;;;;5055571;28;20474;-80
2022/06/17 01:06:02;;;;;;;328.40;317.07;;;11.60;99.90;;;;;;5055773;28;20464;-82
2022/06/17 01:11:18;;;;;;;357.67;345.00;;;11.50;99.90;;;;;;5056598;28;20501;-82
2022/06/17 01:13:50;;;;;;;356.70;342.90;;;11.60;99.90;;;;;;5057546;28;20810;-82
2022/06/17 01:16:19;;;;;;;350.37;336.70;;;11.70;99.90;;;;;;5057053;28;20455;-82
2022/06/17 01:18:47;;;;;;;335.23;322.80;;;11.70;99.90;;;;;;5054561;28;20461;-82
2022/06/17 01:21:25;;;;;;;435.97;418.47;;;11.70;99.90;;;;;;5055351;28;20458;-81
2022/06/17 01:23:53;;;;;;;481.93;461.33;;;11.80;99.90;;;;;;5055332;28;20455;-82
2022/06/17 01:26:20;;;;;;;393.43;378.73;;;11.90;99.90;;;;;;5054971;28;20467;-82
2022/06/17 01:28:47;;;;;;;419.70;403.67;;;11.90;99.90;;;;;;5055069;28;20803;-82
2022/06/17 01:31:14;;;;;;;387.47;371.83;;;11.90;99.90;;;;;;5055211;28;20479;-82
2022/06/17 01:33:43;;;;;;;330.40;318.17;;;11.90;99.90;;;;;;5055094;28;20455;-82
2022/06/17 01:36:14;;;;;;;338.97;326.10;;;11.80;99.90;;;;;;5054552;28;20455;-82
2022/06/17 01:38:43;;;;;;;394.13;379.20;;;11.80;99.90;;;;;;5054548;28;20462;-82
2022/06/17 01:41:14;;;;;;;322.73;310.87;;;11.80;99.90;;;;;;5055728;28;20456;-83
2022/06/17 01:43:45;;;;;;;253.63;244.93;;;11.80;99.90;;;;;;5058427;28;20463;-82
2022/06/17 01:46:15;;;;;;;286.87;276.87;;;11.70;99.90;;;;;;5056904;28;20936;-82
2022/06/17 01:48:46;;;;;;;302.40;291.60;;;11.70;99.90;;;;;;5055897;28;20455;-83
2022/06/17 01:51:17;;;;;;;330.57;318.67;;;11.70;99.90;;;;;;5055620;28;20475;-83
2022/06/17 01:53:50;;;;;;;316.90;304.90;;;11.70;99.90;;;;;;5054903;28;20534;-81
2022/06/17 01:56:21;;;;;;;317.43;305.53;;;11.70;99.90;;;;;;5054608;28;20455;-81
2022/06/17 01:58:53;;;;;;;336.93;324.53;;;11.70;99.90;;;;;;5055759;28;20462;-81
2022/06/17 02:01:22;;;;;;;371.53;357.77;;;11.80;99.90;;;;;;5057727;28;20456;-80
2022/06/17 02:03:52;;;;;;;336.93;324.77;;;11.60;99.90;;;;;;5057668;28;20459;-81
2022/06/17 02:06:23;;;;;;;399.97;384.97;;;11.70;99.90;;;;;;5057312;28;20474;-80
2022/06/17 02:08:51;;;;;;;440.27;422.83;;;11.80;99.90;;;;;;5056884;28;20456;-81
2022/06/17 02:11:20;;;;;;;410.37;394.40;;;11.70;99.90;;;;;;5057729;28;20561;-82
2022/06/17 02:13:47;;;;;;;451.47;433.57;;;11.80;99.90;;;;;;5057453;28;20462;-81
2022/06/17 02:16:16;;;;;;;387.63;372.87;;;11.80;99.90;;;;;;5057506;28;20452;-82
2022/06/17 02:18:45;;;;;;;450.50;433.00;;;11.80;99.90;;;;;;5056728;28;20455;-82
2022/06/17 02:21:15;;;;;;;430.47;414.37;;;11.70;99.90;;;;;;5058245;28;20447;-80
2022/06/17 02:23:42;;;;;;;412.17;397.20;;;11.60;99.90;;;;;;5059143;28;20706;-82
2022/06/17 02:26:11;;;;;;;400.87;386.30;;;11.60;99.90;;;;;;5058725;28;20971;-82
2022/06/17 02:28:41;;;;;;;403.27;388.50;;;11.70;99.90;;;;;;5058634;28;20455;-81
2022/06/17 02:31:09;;;;;;;455.60;438.20;;;11.30;99.90;;;;;;5060555;28;20470;-81
2022/06/17 02:33:37;;;;;;;496.00;476.20;;;11.40;99.90;;;;;;5063032;28;20462;-81
2022/06/17 02:36:10;;;;;;;472.87;454.17;;;11.40;99.90;;;;;;5062711;28;20451;-81
2022/06/17 02:38:38;;;;;;;478.00;459.37;;;11.20;99.90;;;;;;5062321;28;20454;-81
2022/06/17 02:41:08;;;;;;;415.17;399.10;;;11.30;99.90;;;;;;5062923;28;20447;-81
2022/06/17 02:43:39;;;;;;;514.93;493.43;;;11.10;99.90;;;;;;5062805;28;20474;-81
2022/06/17 02:46:11;;;;;;;459.87;441.27;;;11.10;99.90;;;;;;5063466;28;20455;-81
2022/06/17 02:48:42;;;;;;;414.03;397.63;;;11.00;99.90;;;;;;5062539;28;20447;-81
2022/06/17 02:51:12;;;;;;;580.70;554.30;;;11.00;99.90;;;;;;5062871;28;20478;-80
2022/06/17 02:53:40;;;;;;;610.43;582.00;;;10.80;99.90;;;;;;5061145;28;20465;-82
2022/06/17 02:56:12;;;;;;;487.30;466.37;;;10.90;99.90;;;;;;5061424;28;20505;-81
2022/06/17 02:58:47;;;;;;;606.57;577.57;;;10.80;99.90;;;;;;5061458;28;20436;-81
2022/06/17 03:01:20;;;;;;;655.23;622.30;;;10.90;99.90;;;;;;5061200;28;20834;-82
2022/06/17 03:03:49;;;;;;;630.73;599.63;;;10.90;99.90;;;;;;5061770;28;20451;-82
2022/06/17 03:06:20;;;;;;;589.60;562.23;;;11.00;99.90;;;;;;5061973;28;20496;-81
2022/06/17 03:08:50;;;;;;;629.73;599.83;;;10.90;99.90;;;;;;5059557;28;20451;-82
2022/06/17 03:11:18;;;;;;;553.97;528.67;;;11.10;99.90;;;;;;5060273;28;20893;-82
2022/06/17 03:13:49;;;;;;;467.57;447.53;;;11.10;99.90;;;;;;5059670;28;20478;-82
2022/06/17 03:16:18;;;;;;;368.33;354.77;;;11.00;99.90;;;;;;5060406;28;20459;-82
2022/06/17 03:18:47;;;;;;;401.10;386.83;;;11.00;99.90;;;;;;5058351;28;20459;-81
2022/06/17 03:21:20;;;;;;;382.57;368.50;;;10.90;99.90;;;;;;5058916;28;20455;-81
2022/06/17 03:23:52;;;;;;;395.80;381.77;;;10.80;99.90;;;;;;5059669;28;20894;-81
2022/06/17 03:26:23;;;;;;;396.20;381.83;;;10.70;99.90;;;;;;5059125;28;20454;-82
2022/06/17 03:28:51;;;;;;;420.13;403.97;;;10.70;99.90;;;;;;5058779;28;20451;-82
2022/06/17 03:31:25;;;;;;;458.20;440.20;;;10.80;99.90;;;;;;5058937;28;20520;-82
2022/06/17 03:33:57;;;;;;;495.80;476.00;;;10.80;99.90;;;;;;5058562;28;20474;-83
2022/06/17 03:36:30;;;;;;;532.93;510.10;;;10.80;99.90;;;;;;5057728;28;20982;-81
2022/06/17 03:38:59;;;;;;;570.93;545.33;;;10.80;99.90;;;;;;5057546;28;20455;-82
2022/06/17 03:41:37;;;;;;;601.53;572.13;;;10.90;99.90;;;;;;5057196;28;20448;-82
2022/06/17 03:44:07;;;;;;;555.03;529.50;;;11.00;99.90;;;;;;5058895;28;20458;-82
2022/06/17 03:46:43;;;;;;;536.73;513.03;;;11.00;99.90;;;;;;5057859;28;20458;-81
2022/06/17 03:49:15;;;;;;;512.43;490.10;;;11.00;99.90;;;;;;5058735;28;21008;-81
2022/06/17 03:51:43;;;;;;;498.13;477.33;;;11.30;99.90;;;;;;5057325;28;20987;-81
2022/06/17 03:54:12;;;;;;;487.93;468.23;;;11.30;99.90;;;;;;5055727;28;20948;-80
2022/06/17 03:56:42;;;;;;;517.20;494.53;;;11.30;99.90;;;;;;5056729;28;20468;-82
2022/06/17 03:59:16;;;;;;;528.07;505.37;;;11.40;99.90;;;;;;5056086;28;20459;-82
2022/06/17 04:01:47;;;;;;;459.17;440.37;;;11.50;99.90;;;;;;5057342;28;20491;-83
2022/06/17 04:04:17;;;;;;;415.23;397.83;;;11.60;99.90;;;;;;5056540;28;20458;-82
2022/06/17 04:06:47;;;;;;;398.40;382.80;;;11.50;99.90;;;;;;5056166;28;20463;-82
2022/06/17 04:09:17;;;;;;;364.93;351.37;;;11.70;99.90;;;;;;5055582;28;21090;-81
2022/06/17 04:11:46;;;;;;;359.67;345.87;;;11.70;99.90;;;;;;5056856;28;20533;-82
2022/06/17 04:14:19;;;;;;;349.27;336.33;;;11.80;99.90;;;;;;5056581;28;20952;-82
2022/06/17 04:16:53;;;;;;;330.23;318.23;;;11.90;99.90;;;;;;5056074;28;20467;-81
2022/06/17 04:19:24;;;;;;;333.13;320.83;;;12.00;99.90;;;;;;5055568;28;20431;-82
2022/06/17 04:21:51;;;;;;;323.47;311.83;;;12.00;99.90;;;;;;5055490;28;20505;-83
2022/06/17 04:24:20;;;;;;;336.57;324.47;;;12.00;99.90;;;;;;5056867;28;20979;-82
2022/06/17 04:26:49;;;;;;;328.67;316.37;;;12.20;99.90;;;;;;5055936;28;20452;-82
2022/06/17 04:29:19;;;;;;;363.53;349.97;;;12.20;99.90;;;;;;5055693;28;20480;-82
2022/06/17 04:31:51;;;;;;;391.80;376.87;;;12.30;99.90;;;;;;5055621;28;20515;-81
2022/06/17 04:34:19;;;;;;;390.03;374.97;;;12.50;99.90;;;;;;5055990;28;20892;-81
2022/06/17 04:36:50;;;;;;;379.73;364.70;;;12.60;99.90;;;;;;5055859;28;20447;-82
2022/06/17 04:39:23;;;;;;;374.97;360.30;;;12.70;99.90;;;;;;5054680;28;20459;-81
2022/06/17 04:41:53;;;;;;;338.87;325.53;;;12.70;99.90;;;;;;5054949;28;20474;-81
2022/06/17 04:44:20;;;;;;;335.07;322.17;;;12.80;99.90;;;;;;5054484;28;20809;-81
2022/06/17 04:46:54;;;;;;;315.50;303.63;;;12.90;99.90;;;;;;5054827;28;20447;-81
2022/06/17 04:49:23;;;;;;;305.53;294.33;;;13.20;99.90;;;;;;5053890;28;20841;-81
2022/06/17 04:51:52;;;;;;;276.57;266.93;;;13.40;99.90;;;;;;5054336;28;20964;-83
2022/06/17 04:54:19;;;;;;;266.60;257.30;;;13.50;99.90;;;;;;5052448;28;20451;-81
2022/06/17 04:56:51;;;;;;;219.77;211.37;;;13.60;99.90;;;;;;5056635;28;20451;-82
2022/06/17 04:59:28;;;;;;;183.87;177.47;;;13.80;99.90;;;;;;5056123;28;20482;-81
2022/06/17 05:01:57;;;;;;;180.13;173.83;;;13.90;99.90;;;;;;5055304;28;20471;-82
2022/06/17 05:04:25;;;;;;;185.17;178.47;;;14.10;99.90;;;;;;5055099;28;20986;-81
2022/06/17 05:06:52;;;;;;;199.17;191.87;;;14.20;99.90;;;;;;5054735;28;20948;-81
2022/06/17 05:09:24;;;;;;;164.17;158.20;;;14.40;99.90;;;;;;5054489;28;20455;-81
2022/06/17 05:11:55;;;;;;;149.63;143.97;;;14.60;99.90;;;;;;5055066;28;20490;-82
2022/06/17 05:14:31;;;;;;;152.03;146.43;;;14.80;99.90;;;;;;5056024;28;20948;-82
2022/06/17 05:16:59;;;;;;;125.63;120.77;;;15.00;99.90;;;;;;5054279;28;20450;-82
2022/06/17 05:19:26;;;;;;;30.50;28.60;;;15.30;99.90;;;;;;5053135;28;20998;-82
2022/06/17 05:21:53;;;;;;;9.90;8.50;;;15.90;99.90;;;;;;5054125;28;20480;-81
2022/06/17 05:24:20;;;;;;;13.20;6.30;;;16.50;97.00;;;;;;5054196;28;20447;-82
2022/06/17 05:26:53;;;;;;;12.43;6.30;;;17.10;91.70;;;;;;5054238;28;20453;-82
2022/06/17 05:29:20;;;;;;;13.10;6.30;;;18.00;84.20;;;;;;5053763;28;20452;-83
2022/06/17 05:31:49;;;;;;;7.43;5.57;;;18.30;77.30;;;;;;5054276;28;20480;-82
2022/06/17 05:34:17;;;;;;;9.10;5.57;;;18.90;72.50;;;;;;5055030;28;20462;-82
2022/06/17 05:36:44;;;;;;;12.90;6.67;;;19.50;66.80;;;;;;5054073;28;20459;-83
2022/06/17 05:39:11;;;;;;;11.43;5.57;;;20.30;61.40;;;;;;5053429;28;20452;-82
2022/06/17 05:41:38;;;;;;;16.67;7.03;;;21.30;55.50;;;;;;5053759;28;20477;-82
2022/06/17 05:44:05;;;;;;;8.50;5.60;;;21.70;48.30;;;;;;5054032;28;20885;-82
2022/06/17 05:46:33;;;;;;;13.00;6.03;;;22.50;46.50;;;;;;5054104;28;20543;-82
2022/06/17 05:48:59;;;;;;;13.70;5.73;;;23.30;38.40;;;;;;5053479;28;20453;-82
2022/06/17 05:51:31;;;;;;;8.10;5.50;;;23.20;35.80;;;;;;5053650;28;20455;-87
2022/06/17 05:54:06;;;;;;;8.73;5.53;;;23.20;33.40;;;;;;5050451;28;20863;-85
2022/06/17 05:56:38;;;;;;;12.80;5.57;;;23.20;33.20;;;;;;5051860;28;20832;-86
2022/06/17 05:59:32;;;;;;;8.77;5.13;;;22.70;32.50;;;;;;5050251;28;20489;-87
2022/06/17 06:02:06;;;;;;;12.30;5.60;;;22.20;34.30;;;;;;5044819;28;20546;-86
2022/06/17 06:04:33;;;;;;;8.90;5.40;;;21.80;34.90;;;;;;5052801;28;20465;-85
2022/06/17 06:07:16;;;;;;;8.33;4.90;;;21.10;36.30;;;;;;5056592;28;20457;-87
2022/06/17 06:09:45;;;;;;;9.47;5.40;;;20.90;39.60;;;;;;5054062;28;20502;-86
2022/06/17 06:14:52;;;;;;;9.30;5.40;;;20.70;42.20;;;;;;5052610;28;20459;-85
2022/06/17 06:17:27;;;;;;;12.87;5.53;;;21.20;42.00;;;;;;5053977;28;20451;-87
2022/06/17 06:19:55;;;;;;;10.10;5.97;;;21.70;40.00;;;;;;5055290;28;20457;-85
2022/06/17 06:22:24;;;;;;;12.70;5.13;;;22.40;38.10;;;;;;5055289;28;20463;-86
2022/06/17 06:24:59;;;;;;;12.07;5.97;;;23.10;33.50;;;;;;5055580;28;20453;-85
2022/06/17 06:27:31;;;;;;;8.93;4.50;;;23.30;32.30;;;;;;5055627;28;20454;-86
2022/06/17 06:29:59;;;;;;;7.90;5.40;;;23.60;30.30;;;;;;5055216;28;20486;-86
2022/06/17 06:32:29;;;;;;;9.77;4.80;;;23.80;28.00;;;;;;5055304;28;20480;-85
2022/06/17 06:35:00;;;;;;;11.50;5.10;;;24.00;27.50;;;;;;5055190;28;20954;-86
2022/06/17 06:37:30;;;;;;;11.93;5.10;;;24.40;26.90;;;;;;5055318;28;20447;-85
2022/06/17 06:39:57;;;;;;;8.33;3.83;;;24.60;25.90;;;;;;5052342;28;20454;-85
2022/06/17 06:42:43;;;;;;;8.20;4.27;;;25.10;23.80;;;;;;5054031;28;20475;-85
2022/06/17 06:45:20;;;;;;;9.23;4.20;;;25.00;23.30;;;;;;5054285;28;20451;-86
2022/06/17 06:47:53;;;;;;;7.73;3.47;;;24.80;23.20;;;;;;5054578;28;20826;-85
2022/06/17 06:50:27;;;;;;;9.67;3.50;;;25.00;26.80;;;;;;5053375;28;20459;-86
2022/06/17 06:53:13;;;;;;;7.50;3.30;;;25.40;22.50;;;;;;5052696;28;20479;-87
2022/06/17 06:55:50;;;;;;;7.20;3.40;;;25.30;18.90;;;;;;5054121;28;20532;-84
2022/06/17 06:58:22;;;;;;;8.47;3.47;;;25.50;17.90;;;;;;5053627;28;20446;-86
2022/06/17 07:01:06;;;;;;;7.43;3.60;;;25.10;18.70;;;;;;5054023;28;20460;-87
2022/06/17 07:03:39;;;;;;;9.40;3.90;;;25.60;16.50;;;;;;5054779;28;20573;-87
2022/06/17 07:06:10;;;;;;;9.33;3.77;;;25.90;17.10;;;;;;5054675;28;20459;-87
2022/06/17 07:08:39;;;;;;;6.73;3.50;;;25.90;15.40;;;;;;5054899;28;20821;-87
2022/06/17 07:11:08;;;;;;;7.60;3.77;;;26.40;15.50;;;;;;5060009;28;20559;-83
2022/06/17 07:13:35;;;;;;;8.03;3.97;;;26.60;14.20;;;;;;5055608;28;20482;-86
2022/06/17 07:16:02;;;;;;;6.77;3.53;;;26.60;10.80;;;;;;5054730;28;20458;-85
2022/06/17 07:18:32;;;;;;;8.13;3.13;;;26.70;9.30;;;;;;5054413;28;20834;-85
2022/06/17 07:21:01;;;;;;;9.13;3.90;;;26.60;11.30;;;;;;5057633;28;20462;-85
2022/06/17 07:23:30;;;;;;;5.77;3.30;;;26.30;11.30;;;;;;5058903;28;20449;-84
2022/06/17 07:26:00;;;;;;;8.93;3.60;;;26.20;12.50;;;;;;5059535;28;20967;-85
2022/06/17 07:28:27;;;;;;;7.77;3.23;;;26.10;11.90;;;;;;5060019;28;20447;-83
2022/06/17 07:30:56;;;;;;;6.70;3.20;;;26.20;12.60;;;;;;5058626;28;20462;-83
2022/06/17 07:33:24;;;;;;;6.87;3.33;;;26.20;12.40;;;;;;5045242;28;20483;-83
2022/06/17 07:35:55;;;;;;;6.90;3.43;;;25.80;12.00;;;;;;5038799;28;20460;-83
2022/06/17 07:41:19;;;;;;;7.35;3.47;;;25.30;12.90;;;;;;5035372;28;20463;-82
2022/06/17 07:43:46;;;;;;;6.80;3.10;;;25.20;15.00;;;;;;5036921;28;20193;-82
2022/06/17 07:46:13;;;;;;;5.27;2.47;;;25.70;16.20;;;;;;5036895;28;20841;-82
2022/06/17 07:48:42;;;;;;;9.20;3.83;;;26.30;15.50;;;;;;5036432;28;20833;-84
2022/06/17 07:51:10;;;;;;;5.53;2.80;;;26.40;10.90;;;;;;5037310;28;20546;-82
2022/06/17 07:53:41;;;;;;;6.37;3.30;;;26.70;10.90;;;;;;5036494;28;20502;-82
2022/06/17 07:56:13;;;;;;;6.93;3.30;;;27.00;13.70;;;;;;5036764;28;20456;-82
2022/06/17 07:58:41;;;;;;;6.70;2.97;;;27.20;10.20;;;;;;5035321;28;20510;-80
2022/06/17 08:01:09;;;;;;;8.80;3.80;;;26.80;7.90;;;;;;5035583;28;20451;-79
2022/06/17 08:03:36;;;;;;;7.90;3.30;;;26.60;7.60;;;;;;5035581;28;20452;-79
2022/06/17 08:06:06;;;;;;;6.23;3.50;;;26.80;7.20;;;;;;5035697;28;20671;-80
2022/06/17 08:08:34;;;;;;;9.93;2.93;;;26.90;8.30;;;;;;5035630;28;20491;-80
2022/06/17 08:11:02;;;;;;;8.30;3.70;;;26.90;7.70;;;;;;5035898;28;20463;-80
2022/06/17 08:13:30;;;;;;;6.23;2.83;;;26.90;6.70;;;;;;5034864;28;20508;-79
2022/06/17 08:16:00;;;;;;;6.97;3.20;;;27.30;10.10;;;;;;5035265;28;20460;-79
2022/06/17 08:18:28;;;;;;;8.23;2.97;;;27.20;8.80;;;;;;5034593;28;20556;-79
2022/06/17 08:20:56;;;;;;;9.50;3.40;;;27.50;4.70;;;;;;5035427;28;20456;-80
2022/06/17 08:23:23;;;;;;;8.50;2.80;;;27.90;2.70;;;;;;5034559;28;20504;-80
2022/06/17 08:25:50;;;;;;;7.87;3.10;;;28.20;4.70;;;;;;5035559;28;20972;-81
2022/06/17 08:28:18;;;;;;;8.70;3.20;;;28.10;3.30;;;;;;5034719;28;20451;-80
2022/06/17 08:30:47;;;;;;;6.10;2.73;;;28.10;1.90;;;;;;5037262;28;20459;-80
2022/06/17 08:33:38;;;;;;;5.73;2.80;;;28.30;1.00;;;;;;5035221;28;20480;-83
2022/06/17 08:40:25;;;;;;;;;;;;;;;;;;;;;
2022/06/17 08:43:37;;;;;;;6.37;3.00;;;28.40;2.10;;;;;;5020089;28;20499;-83
2022/06/17 08:49:56;;;;;;;10.97;3.10;;;29.10;1.00;;;;;;5029658;28;20456;-81
2022/06/17 08:52:53;;;;;;;5.53;2.60;;;29.10;1.00;;;;;;5041265;28;20472;-81
2022/06/17 08:58:54;;;;;;;8.33;2.67;;;29.10;1.00;;;;;;5042549;28;20758;-80
2022/06/17 09:01:51;;;;;;;7.67;2.93;;;29.10;1.00;;;;;;5042731;28;20487;-80
2022/06/17 09:05:24;;;;;;;6.00;2.57;;;28.80;1.00;;;;;;5042409;28;20464;-81
2022/06/17 09:08:34;;;;;;;7.43;2.37;;;28.90;1.00;;;;;;5034801;28;20435;-82
2022/06/17 09:11:32;;;;;;;7.43;2.83;;;29.20;1.00;;;;;;5034366;28;20487;-81
2022/06/17 09:14:55;;;;;;;9.03;2.70;;;29.30;1.00;;;;;;4952151;28;20459;-81
2022/06/17 09:18:06;;;;;;;6.23;2.50;;;29.00;1.00;;;;;;5032879;28;20440;-82
2022/06/17 09:21:22;;;;;;;8.83;2.77;;;29.10;1.00;;;;;;5021750;28;20431;-82
2022/06/17 09:27:45;;;;;;;5.60;2.33;;;30.00;1.00;;;;;;5030768;28;20428;-81
2022/06/17 09:34:34;;;;;;;5.37;2.37;;;30.30;1.00;;;;;;5041681;22;20467;-81
2022/06/17 09:37:41;;;;;;;10.50;2.50;;;30.60;1.00;;;;;;5032678;28;20436;-82
2022/06/17 09:43:36;;;;;;;5.90;2.00;;;31.30;1.00;;;;;;5010545;28;20489;-83
2022/06/17 09:46:09;;;;;;;5.63;2.27;;;31.40;1.00;;;;;;5019150;28;20423;-80
2022/06/17 09:48:43;;;;;;;5.63;2.67;;;31.50;1.00;;;;;;5036931;28;20466;-81
2022/06/17 09:51:15;;;;;;;10.63;2.60;;;31.40;1.00;;;;;;5036642;28;20854;-81
2022/06/17 09:53:49;;;;;;;7.50;2.00;;;31.10;1.00;;;;;;5034642;28;20452;-81
2022/06/17 09:56:22;;;;;;;4.87;2.00;;;31.10;1.00;;;;;;5033468;28;20437;-82
2022/06/17 09:58:52;;;;;;;7.07;2.07;;;31.60;1.00;;;;;;5035104;28;20457;-82
2022/06/17 10:01:26;;;;;;;5.70;1.80;;;32.00;1.00;;;;;;5034329;28;20459;-77
2022/06/17 10:03:53;;;;;;;8.47;2.33;;;31.80;1.00;;;;;;5033386;28;20451;-81
2022/06/17 10:06:31;;;;;;;5.40;1.80;;;31.70;1.00;;;;;;5016812;28;20435;-82
2022/06/17 10:09:16;;;;;;;4.80;2.00;;;31.60;1.00;;;;;;5014041;28;20449;-82
2022/06/17 10:11:49;;;;;;;4.40;1.60;;;31.90;1.00;;;;;;5017655;28;20488;-82
2022/06/17 10:14:25;;;;;;;7.07;2.57;;;31.90;1.00;;;;;;5015223;28;20778;-82
2022/06/17 10:19:57;;;;;;;5.50;1.63;;;32.80;1.00;;;;;;5016175;28;20415;-82
2022/06/17 10:22:40;;;;;;;4.93;1.97;;;32.70;1.00;;;;;;5016081;28;20454;-82
2022/06/17 10:25:21;;;;;;;5.03;2.00;;;32.20;1.00;;;;;;5015404;28;20477;-82
2022/06/17 10:28:00;;;;;;;8.13;1.90;;;32.50;1.00;;;;;;5015744;28;20468;-82
2022/06/17 10:30:42;;;;;;;8.10;2.50;;;33.10;1.00;;;;;;5014035;28;20436;-82
2022/06/17 10:33:16;;;;;;;4.50;1.80;;;33.30;1.00;;;;;;5016294;28;20477;-80
2022/06/17 10:35:46;;;;;;;7.63;2.07;;;33.50;1.00;;;;;;5016125;28;20970;-82
2022/06/17 10:38:17;;;;;;;4.70;2.00;;;34.00;1.00;;;;;;5015799;28;20459;-83
2022/06/17 10:40:45;;;;;;;5.53;2.00;;;33.90;1.00;;;;;;5015704;28;20461;-81
2022/06/17 10:43:15;;;;;;;5.57;1.80;;;34.30;1.00;;;;;;5019902;28;20473;-81
2022/06/17 10:45:42;;;;;;;7.50;2.13;;;35.10;1.00;;;;;;5018833;28;20801;-81
2022/06/17 10:48:18;;;;;;;5.30;1.80;;;34.50;1.00;;;;;;5012819;28;20428;-81
2022/06/17 10:50:45;;;;;;;4.60;1.73;;;35.30;1.00;;;;;;5012828;28;20441;-79
2022/06/17 10:53:24;;;;;;;4.87;1.83;;;35.40;1.00;;;;;;5015243;28;20900;-79
2022/06/17 10:55:56;;;;;;;5.30;1.77;;;34.80;1.00;;;;;;5015160;28;20416;-78
2022/06/17 10:58:25;;;;;;;4.50;1.60;;;35.60;1.00;;;;;;5015448;28;20431;-80
2022/06/17 11:00:58;;;;;;;4.50;1.77;;;35.30;1.00;;;;;;5020731;28;20434;-80
2022/06/17 11:03:29;;;;;;;6.60;1.60;;;35.60;1.00;;;;;;5020217;28;20473;-79
2022/06/17 11:06:00;;;;;;;9.40;1.93;;;35.90;1.00;;;;;;5018195;28;20454;-81
2022/06/17 11:08:32;;;;;;;5.83;1.87;;;35.90;1.00;;;;;;5018985;28;20467;-79
2022/06/17 11:13:43;;;;;;;5.10;1.77;;;34.80;1.00;;;;;;5017324;28;20439;-81
2022/06/17 11:16:10;;;;;;;4.77;1.97;;;35.30;1.00;;;;;;5019041;28;20504;-80
2022/06/17 11:18:38;;;;;;;5.10;1.97;;;35.10;1.00;;;;;;5018261;28;20420;-79
2022/06/17 11:21:09;;;;;;;5.27;1.50;;;35.30;1.00;;;;;;5018890;28;20455;-78
2022/06/17 11:23:41;;;;;;;5.90;1.70;;;35.10;1.00;;;;;;5018841;28;20441;-80
2022/06/17 11:26:16;;;;;;;5.97;1.70;;;36.20;1.00;;;;;;5017524;28;20486;-80
2022/06/17 11:28:45;;;;;;;4.63;1.70;;;36.10;1.00;;;;;;5016562;28;20783;-81
2022/06/17 11:31:15;;;;;;;8.77;1.97;;;36.00;1.00;;;;;;5017315;28;20811;-78
2022/06/17 11:33:58;;;;;;;4.10;1.47;;;35.60;1.00;;;;;;5017223;28;20428;-80
2022/06/17 11:36:28;;;;;;;6.13;1.77;;;36.80;1.00;;;;;;5018493;28;20412;-81
2022/06/17 11:38:57;;;;;;;11.63;1.77;;;36.80;1.00;;;;;;5017595;28;20942;-81
2022/06/17 11:41:28;;;;;;;5.03;1.50;;;36.60;1.00;;;;;;5017820;28;20455;-81
2022/06/17 11:43:57;;;;;;;4.37;1.50;;;36.10;1.00;;;;;;5017923;28;20518;-81
2022/06/17 11:46:28;;;;;;;4.70;1.50;;;36.10;1.00;;;;;;5017667;28;20453;-81
2022/06/17 11:48:57;;;;;;;4.20;1.47;;;36.70;1.00;;;;;;5018635;28;20431;-81
2022/06/17 11:51:32;;;;;;;4.00;1.40;;;36.70;1.00;;;;;;5018359;28;20475;-81
2022/06/17 11:54:03;;;;;;;5.70;1.60;;;36.70;1.00;;;;;;5018389;28;20452;-79
2022/06/17 11:56:36;;;;;;;4.83;1.83;;;36.70;1.00;;;;;;5016785;28;20535;-81
2022/06/17 11:59:09;;;;;;;4.63;1.50;;;37.00;1.00;;;;;;5018348;28;20439;-82
2022/06/17 12:04:35;;;;;;;5.30;1.50;;;36.90;1.00;;;;;;5052864;28;20842;-80
2022/06/17 12:07:02;;;;;;;5.43;1.50;;;37.80;1.00;;;;;;5057961;28;20807;-82
2022/06/17 12:09:35;;;;;;;4.30;1.40;;;38.30;1.00;;;;;;5058102;28;20418;-83
2022/06/17 12:12:11;;;;;;;5.00;1.47;;;38.50;1.00;;;;;;5059984;28;20944;-82
2022/06/17 12:14:47;;;;;;;10.17;1.70;;;37.90;1.00;;;;;;5057799;28;20447;-79
2022/06/17 12:17:16;;;;;;;8.13;1.60;;;38.80;1.00;;;;;;5058003;28;20452;-82
2022/06/17 12:19:43;;;;;;;4.30;1.40;;;38.30;1.00;;;;;;5056631;28;20429;-81
2022/06/17 12:22:17;;;;;;;7.37;1.60;;;38.20;1.00;;;;;;5056910;28;20538;-81
2022/06/17 12:24:48;;;;;;;4.77;1.57;;;38.00;1.00;;;;;;5057015;28;20448;-79
2022/06/17 12:27:23;;;;;;;4.50;1.40;;;38.50;1.00;;;;;;5057851;28;20433;-82
2022/06/17 12:29:58;;;;;;;6.30;1.60;;;36.60;1.00;;;;;;5056923;28;20434;-82
2022/06/17 12:32:29;;;;;;;4.07;1.23;;;36.30;1.00;;;;;;5056965;28;20445;-82
2022/06/17 12:35:03;;;;;;;4.20;1.40;;;36.40;1.00;;;;;;5056813;28;20418;-82
2022/06/17 12:37:39;;;;;;;4.53;1.60;;;37.30;1.00;;;;;;5056948;28;20922;-81
2022/06/17 12:40:10;;;;;;;4.73;1.30;;;37.30;1.00;;;;;;5055845;28;20435;-82
2022/06/17 12:42:48;;;;;;;4.27;1.50;;;37.40;1.00;;;;;;5056920;28;20450;-79
2022/06/17 12:45:23;;;;;;;4.20;1.43;;;37.80;1.00;;;;;;5055847;28;20441;-78
2022/06/17 12:48:03;;;;;;;5.40;1.50;;;38.10;1.00;;;;;;5056527;28;20429;-79
2022/06/17 12:53:31;;;;;;;4.67;1.47;;;38.10;1.00;;;;;;5056064;28;20849;-78
2022/06/17 12:56:07;;;;;;;4.87;2.20;;;38.30;1.00;;;;;;5054160;28;21077;-80
2022/06/17 12:58:57;;;;;;;4.50;1.60;;;37.60;1.00;;;;;;5056180;28;21022;-79
2022/06/17 13:01:39;;;;;;;4.33;1.30;;;37.30;1.00;;;;;;5056189;28;20455;-79
2022/06/17 13:04:20;;;;;;;5.30;1.60;;;37.90;1.00;;;;;;5055920;28;20981;-77
2022/06/17 13:07:00;;;;;;;5.00;2.33;;;38.20;1.00;;;;;;5056210;28;20421;-79
2022/06/17 13:09:42;;;;;;;4.30;1.40;;;38.80;1.00;;;;;;5054890;28;20493;-79
2022/06/17 13:12:18;;;;;;;6.20;1.40;;;39.00;1.00;;;;;;5055595;28;20470;-79
2022/06/17 13:14:52;;;;;;;4.30;1.70;;;38.90;1.00;;;;;;5055292;28;20450;-79
2022/06/17 13:17:27;;;;;;;4.37;1.50;;;39.20;1.00;;;;;;5055678;28;20428;-78
2022/06/17 13:19:59;;;;;;;6.57;1.73;;;39.10;1.00;;;;;;5054491;28;20849;-82
2022/06/17 13:22:33;;;;;;;4.50;1.70;;;39.60;1.00;;;;;;5055511;28;20453;-79
2022/06/17 13:25:11;;;;;;;4.50;1.60;;;39.30;1.00;;;;;;5055578;28;20475;-80
2022/06/17 13:27:43;;;;;;;4.30;1.40;;;39.30;1.00;;;;;;5056361;28;20869;-80
2022/06/17 13:30:17;;;;;;;4.97;1.60;;;38.80;1.00;;;;;;5046348;28;20456;-79
2022/06/17 13:32:46;;;;;;;5.27;2.13;;;39.10;1.00;;;;;;5034424;28;20468;-82
2022/06/17 13:35:22;;;;;;;6.33;1.73;;;38.90;1.00;;;;;;5034373;28;20538;-79
2022/06/17 13:37:54;;;;;;;4.73;1.53;;;38.60;1.00;;;;;;5034818;28;20432;-80
2022/06/17 13:40:24;;;;;;;8.27;1.57;;;38.50;1.00;;;;;;5035591;28;20453;-82
2022/06/17 13:42:56;;;;;;;8.17;1.80;;;39.10;1.00;;;;;;5041427;28;20483;-79
2022/06/17 13:45:35;;;;;;;5.37;1.83;;;39.20;1.00;;;;;;5043925;28;20446;-79